createdAt,value
2022-08-03T00:03:19.304Z,10.61
2022-08-03T00:03:42.182Z,10.61
2022-08-03T00:04:11.439Z,10.39
2022-08-03T00:04:41.863Z,10.39
2022-08-03T00:05:12.095Z,10.39
2022-08-03T00:06:04.020Z,10.61
2022-08-03T00:06:13.833Z,10.61
2022-08-03T00:06:45.034Z,10.61
2022-08-03T00:07:15.854Z,10.61
2022-08-03T00:10:46.200Z,10.61
2022-08-03T00:10:57.077Z,10.61
2022-08-03T00:11:24.597Z,10.71
2022-08-03T00:11:55.017Z,10.71
2022-08-03T00:12:26.393Z,10.71
2022-08-03T00:12:57.073Z,10.51
2022-08-03T00:13:31.251Z,10.51
2022-08-03T00:13:58.976Z,10.71
2022-08-03T00:14:30.004Z,10.71
2022-08-03T00:15:10.516Z,10.71
2022-08-03T00:15:32.994Z,10.71
2022-08-03T00:16:04.286Z,10.51
2022-08-03T00:16:34.222Z,10.51
2022-08-03T00:17:05.216Z,10.51
2022-08-03T00:17:53.080Z,10.41
2022-08-03T00:18:07.161Z,10.41
2022-08-03T00:18:37.948Z,10.41
2022-08-03T00:19:09.084Z,10.61
2022-08-03T00:19:40.796Z,10.41
2022-08-03T00:20:44.532Z,10.41
2022-08-03T00:21:29.885Z,10.41
2022-08-03T00:21:47.248Z,10.61
2022-08-03T00:22:15.303Z,10.61
2022-08-03T00:22:48.888Z,10.61
2022-08-03T00:23:17.065Z,10.61
2022-08-03T00:23:52.500Z,10.61
2022-08-03T00:24:19.259Z,10.61
2022-08-03T00:24:50.102Z,10.61
2022-08-03T00:25:21.089Z,10.61
2022-08-03T00:25:52.037Z,10.81
2022-08-03T00:26:24.915Z,10.81
2022-08-03T00:26:54.866Z,10.81
2022-08-03T00:27:25.595Z,10.72
2022-08-03T00:28:27.284Z,10.72
2022-08-03T00:28:59.679Z,10.72
2022-08-03T00:30:00.537Z,10.72
2022-08-03T00:30:33.175Z,10.72
2022-08-03T00:31:02.370Z,10.72
2022-08-03T00:31:52.669Z,10.72
2022-08-03T00:32:05.429Z,10.90
2022-08-03T00:32:35.357Z,10.90
2022-08-03T00:33:06.109Z,10.90
2022-08-03T00:33:57.934Z,10.90
2022-08-03T00:34:08.180Z,10.81
2022-08-03T00:34:57.711Z,10.81
2022-08-03T00:35:14.767Z,10.81
2022-08-03T00:35:50.775Z,10.81
2022-08-03T00:36:12.267Z,10.81
2022-08-03T00:36:44.330Z,10.81
2022-08-03T00:37:14.797Z,10.81
2022-08-03T00:37:45.548Z,10.81
2022-08-03T00:38:16.181Z,10.62
2022-08-03T00:38:48.269Z,10.81
2022-08-03T00:39:18.211Z,10.71
2022-08-03T00:39:49.300Z,10.71
2022-08-03T00:40:20.720Z,10.71
2022-08-03T00:40:51.039Z,10.71
2022-08-03T00:41:53.831Z,10.71
2022-08-03T00:42:28.683Z,10.71
2022-08-03T00:42:55.782Z,10.71
2022-08-03T00:43:43.629Z,10.61
2022-08-03T00:43:57.589Z,10.61
2022-08-03T00:44:28.566Z,10.61
2022-08-03T00:44:59.244Z,10.61
2022-08-03T00:45:34.332Z,10.61
2022-08-03T00:46:01.157Z,10.81
2022-08-03T00:46:32.229Z,10.81
2022-08-03T00:47:03.440Z,10.81
2022-08-03T00:47:37.072Z,10.71
2022-08-03T00:48:05.881Z,10.71
2022-08-03T00:48:36.228Z,10.71
2022-08-03T00:49:07.467Z,10.71
2022-08-03T00:49:41.037Z,10.71
2022-08-03T00:50:09.667Z,10.71
2022-08-03T00:50:40.445Z,10.71
2022-08-03T00:51:12.239Z,10.71
2022-08-03T00:52:15.830Z,10.62
2022-08-03T00:52:45.818Z,10.62
2022-08-03T00:53:16.391Z,10.62
2022-08-03T00:53:47.538Z,10.62
2022-08-03T00:54:17.373Z,10.62
2022-08-03T00:54:48.176Z,10.62
2022-08-03T00:55:18.926Z,10.62
2022-08-03T00:55:50.213Z,10.62
2022-08-03T00:56:21.101Z,10.62
2022-08-03T00:57:00.278Z,10.52
2022-08-03T00:57:23.618Z,10.52
2022-08-03T00:57:55.324Z,10.52
2022-08-03T00:58:26.270Z,10.52
2022-08-03T00:58:56.364Z,10.52
2022-08-03T00:59:27.197Z,10.52
2022-08-03T01:02:52.594Z,10.52
2022-08-03T01:03:04.502Z,10.42
2022-08-03T01:03:36.425Z,10.61
2022-08-03T01:04:06.925Z,10.42
2022-08-03T01:04:37.288Z,10.42
2022-08-03T01:05:08.563Z,10.42
2022-08-03T01:05:39.353Z,10.61
2022-08-03T01:06:10.220Z,10.61
2022-08-03T01:06:41.116Z,10.61
2022-08-03T01:07:12.350Z,10.61
2022-08-03T01:07:43.220Z,10.61
2022-08-03T01:08:17.356Z,10.51
2022-08-03T01:08:48.137Z,10.51
2022-08-03T01:09:17.653Z,10.51
2022-08-03T01:09:47.537Z,10.51
2022-08-03T01:10:18.633Z,10.51
2022-08-03T01:10:49.324Z,10.51
2022-08-03T01:11:20.567Z,10.51
2022-08-03T01:12:00.096Z,10.51
2022-08-03T01:12:24.032Z,10.51
2022-08-03T01:12:53.403Z,10.51
2022-08-03T01:14:01.983Z,10.51
2022-08-03T01:14:59.208Z,10.51
2022-08-03T01:15:38.568Z,10.51
2022-08-03T01:16:02.316Z,10.41
2022-08-03T01:16:36.930Z,10.41
2022-08-03T01:17:01.411Z,10.41
2022-08-03T01:17:34.194Z,10.41
2022-08-03T01:18:08.003Z,10.41
2022-08-03T01:18:34.413Z,10.41
2022-08-03T01:19:06.254Z,10.41
2022-08-03T01:19:37.734Z,10.41
2022-08-03T01:20:08.294Z,10.41
2022-08-03T01:20:38.610Z,10.41
2022-08-03T01:21:09.465Z,10.41
2022-08-03T01:21:40.075Z,10.41
2022-08-03T01:22:11.318Z,10.41
2022-08-03T01:22:42.900Z,10.41
2022-08-03T01:23:13.083Z,10.41
2022-08-03T01:23:44.141Z,10.41
2022-08-03T01:24:15.968Z,10.41
2022-08-03T01:24:48.826Z,10.41
2022-08-03T01:25:18.586Z,10.41
2022-08-03T01:25:54.333Z,10.41
2022-08-03T01:26:22.477Z,10.41
2022-08-03T01:26:50.075Z,10.41
2022-08-03T01:27:21.425Z,10.41
2022-08-03T01:27:52.518Z,10.41
2022-08-03T01:28:23.731Z,10.41
2022-08-03T01:28:57.953Z,10.41
2022-08-03T01:29:25.723Z,10.41
2022-08-03T01:29:57.509Z,10.41
2022-08-03T01:30:44.614Z,10.41
2022-08-03T01:30:58.638Z,10.41
2022-08-03T01:31:29.591Z,10.41
2022-08-03T01:32:59.421Z,10.32
2022-08-03T01:33:33.602Z,10.32
2022-08-03T01:34:04.210Z,10.32
2022-08-03T01:34:35.304Z,10.32
2022-08-03T01:35:07.295Z,10.32
2022-08-03T01:35:39.171Z,10.32
2022-08-03T01:36:08.694Z,10.32
2022-08-03T01:37:11.358Z,10.50
2022-08-03T01:37:41.200Z,10.50
2022-08-03T01:38:12.346Z,10.50
2022-08-03T01:38:47.667Z,10.50
2022-08-03T01:39:14.266Z,10.50
2022-08-03T01:39:48.727Z,10.50
2022-08-03T01:40:19.571Z,10.50
2022-08-03T01:40:50.789Z,10.50
2022-08-03T01:41:20.556Z,10.50
2022-08-03T01:41:52.154Z,10.50
2022-08-03T01:42:20.230Z,10.50
2022-08-03T01:42:51.325Z,10.50
2022-08-03T01:43:55.506Z,10.50
2022-08-03T01:44:55.725Z,10.40
2022-08-03T01:45:50.911Z,10.40
2022-08-03T01:45:57.877Z,10.40
2022-08-03T01:46:28.885Z,10.40
2022-08-03T01:46:59.496Z,10.40
2022-08-03T01:47:30.534Z,10.40
2022-08-03T01:48:01.425Z,10.40
2022-08-03T01:48:32.480Z,10.40
2022-08-03T01:49:34.803Z,10.40
2022-08-03T01:50:06.139Z,10.22
2022-08-03T01:50:39.095Z,10.22
2022-08-03T01:51:09.371Z,10.22
2022-08-03T01:52:02.946Z,10.22
2022-08-03T01:52:10.320Z,10.22
2022-08-03T01:52:42.386Z,10.22
2022-08-03T01:53:11.835Z,10.22
2022-08-03T01:53:45.736Z,10.22
2022-08-03T01:54:14.665Z,10.22
2022-08-03T01:54:44.588Z,10.22
2022-08-03T01:55:16.433Z,10.22
2022-08-03T01:55:48.824Z,10.22
2022-08-03T01:56:18.843Z,10.22
2022-08-03T01:56:49.843Z,10.22
2022-08-03T01:57:20.024Z,10.22
2022-08-03T01:58:05.365Z,10.22
2022-08-03T01:58:21.559Z,10.22
2022-08-03T01:58:56.300Z,10.22
2022-08-03T01:59:26.316Z,10.22
2022-08-03T01:59:56.271Z,10.40
2022-08-03T02:03:59.556Z,10.40
2022-08-03T02:04:51.149Z,10.31
2022-08-03T02:05:04.985Z,10.31
2022-08-03T02:05:35.979Z,10.31
2022-08-03T02:07:00.237Z,10.31
2022-08-03T02:07:10.473Z,10.31
2022-08-03T02:07:40.882Z,10.31
2022-08-03T02:08:19.370Z,10.31
2022-08-03T02:08:42.024Z,10.31
2022-08-03T02:09:13.329Z,10.31
2022-08-03T02:09:44.933Z,10.21
2022-08-03T02:10:15.193Z,10.21
2022-08-03T02:10:51.631Z,10.21
2022-08-03T02:11:16.758Z,10.21
2022-08-03T02:11:48.537Z,10.21
2022-08-03T02:12:19.407Z,10.21
2022-08-03T02:12:51.231Z,10.21
2022-08-03T02:13:20.651Z,10.21
2022-08-03T02:13:51.341Z,10.21
2022-08-03T02:14:22.509Z,10.21
2022-08-03T02:14:54.165Z,10.21
2022-08-03T02:15:25.173Z,10.39
2022-08-03T02:15:55.688Z,10.39
2022-08-03T02:16:26.473Z,10.39
2022-08-03T02:17:06.872Z,10.39
2022-08-03T02:17:38.516Z,10.39
2022-08-03T02:18:00.357Z,10.39
2022-08-03T02:18:30.581Z,10.39
2022-08-03T02:19:04.951Z,10.39
2022-08-03T02:19:35.725Z,10.30
2022-08-03T02:20:07.008Z,10.30
2022-08-03T02:20:36.660Z,10.30
2022-08-03T02:21:10.991Z,10.30
2022-08-03T02:21:57.430Z,10.30
2022-08-03T02:22:07.788Z,10.30
2022-08-03T02:22:55.942Z,10.30
2022-08-03T02:23:10.641Z,10.30
2022-08-03T02:23:40.788Z,10.30
2022-08-03T02:24:11.736Z,10.30
2022-08-03T02:24:42.313Z,10.30
2022-08-03T02:25:13.750Z,10.30
2022-08-03T02:25:45.620Z,10.30
2022-08-03T02:26:15.790Z,10.30
2022-08-03T02:26:47.530Z,10.30
2022-08-03T02:27:17.412Z,10.30
2022-08-03T02:27:49.689Z,10.30
2022-08-03T02:28:20.042Z,10.11
2022-08-03T02:28:51.670Z,9.83
2022-08-03T02:29:21.592Z,10.01
2022-08-03T02:29:52.816Z,10.20
2022-08-03T02:30:24.762Z,10.20
2022-08-03T02:30:56.591Z,10.30
2022-08-03T02:31:26.262Z,10.30
2022-08-03T02:31:56.588Z,10.30
2022-08-03T02:32:27.706Z,10.30
2022-08-03T02:32:59.947Z,10.30
2022-08-03T02:33:30.557Z,10.30
2022-08-03T02:34:00.705Z,10.30
2022-08-03T02:34:31.450Z,10.30
2022-08-03T02:35:02.754Z,10.30
2022-08-03T02:35:36.747Z,10.30
2022-08-03T02:36:05.052Z,10.30
2022-08-03T02:36:35.860Z,10.30
2022-08-03T02:37:06.624Z,10.30
2022-08-03T02:37:38.227Z,10.30
2022-08-03T02:38:09.652Z,10.30
2022-08-03T02:38:40.525Z,10.47
2022-08-03T02:39:11.161Z,10.30
2022-08-03T02:39:41.952Z,10.30
2022-08-03T02:40:13.048Z,10.30
2022-08-03T02:40:43.576Z,10.30
2022-08-03T02:41:16.826Z,10.30
2022-08-03T02:41:45.856Z,10.30
2022-08-03T02:42:17.166Z,10.30
2022-08-03T02:42:47.876Z,10.30
2022-08-03T02:43:18.487Z,10.30
2022-08-03T02:44:05.902Z,10.30
2022-08-03T02:44:21.909Z,10.30
2022-08-03T02:44:52.225Z,10.30
2022-08-03T02:45:25.009Z,10.30
2022-08-03T02:45:53.755Z,10.30
2022-08-03T02:46:24.878Z,10.47
2022-08-03T02:46:55.811Z,10.47
2022-08-03T02:47:26.774Z,10.47
2022-08-03T02:48:01.575Z,10.47
2022-08-03T02:48:28.711Z,10.37
2022-08-03T02:49:01.231Z,10.37
2022-08-03T02:50:02.635Z,10.37
2022-08-03T02:50:32.490Z,10.37
2022-08-03T02:51:04.159Z,10.37
2022-08-03T02:51:34.901Z,10.37
2022-08-03T02:52:05.963Z,10.37
2022-08-03T02:52:36.488Z,10.37
2022-08-03T02:53:07.941Z,10.37
2022-08-03T02:53:42.243Z,10.37
2022-08-03T02:54:11.962Z,10.37
2022-08-03T02:54:41.932Z,10.37
2022-08-03T02:55:13.009Z,10.37
2022-08-03T02:55:45.895Z,10.37
2022-08-03T02:56:14.686Z,10.37
2022-08-03T02:56:44.873Z,10.37
2022-08-03T02:57:16.921Z,10.37
2022-08-03T02:57:50.147Z,10.37
2022-08-03T02:58:21.530Z,10.37
2022-08-03T02:58:48.783Z,10.37
2022-08-03T02:59:24.955Z,10.37
2022-08-03T02:59:51.787Z,10.27
2022-08-03T03:13:27.750Z,10.27
2022-08-03T03:13:47.629Z,10.26
2022-08-03T03:14:18.523Z,10.26
2022-08-03T03:14:49.998Z,10.26
2022-08-03T03:16:36.016Z,10.26
2022-08-03T03:16:39.986Z,10.16
2022-08-03T03:16:57.861Z,10.16
2022-08-03T03:17:24.821Z,10.16
2022-08-03T03:17:57.115Z,10.16
2022-08-03T03:18:26.674Z,10.16
2022-08-03T03:18:57.829Z,10.16
2022-08-03T03:19:32.981Z,10.16
2022-08-03T03:19:59.721Z,10.16
2022-08-03T03:20:31.234Z,10.16
2022-08-03T03:21:02.744Z,10.16
2022-08-03T03:21:33.104Z,10.16
2022-08-03T03:22:04.297Z,10.16
2022-08-03T03:22:35.649Z,10.16
2022-08-03T03:23:07.803Z,10.16
2022-08-03T03:23:43.220Z,10.16
2022-08-03T03:24:11.661Z,10.16
2022-08-03T03:24:46.872Z,10.07
2022-08-03T03:25:10.034Z,10.07
2022-08-03T03:25:43.504Z,10.07
2022-08-03T03:26:12.966Z,10.07
2022-08-03T03:26:43.975Z,10.07
2022-08-03T03:27:16.827Z,10.07
2022-08-03T03:27:49.470Z,10.07
2022-08-03T03:28:23.035Z,10.07
2022-08-03T03:28:47.568Z,10.07
2022-08-03T03:29:17.945Z,10.07
2022-08-03T03:29:49.863Z,10.07
2022-08-03T03:31:05.410Z,10.07
2022-08-03T03:31:23.539Z,10.07
2022-08-03T03:31:57.672Z,10.07
2022-08-03T03:32:24.252Z,10.07
2022-08-03T03:32:57.726Z,10.25
2022-08-03T03:33:28.335Z,10.25
2022-08-03T03:34:00.517Z,10.25
2022-08-03T03:34:27.788Z,10.25
2022-08-03T03:34:58.948Z,10.25
2022-08-03T03:35:29.925Z,10.25
2022-08-03T03:36:01.187Z,10.25
2022-08-03T03:36:33.136Z,10.25
2022-08-03T03:37:13.464Z,10.25
2022-08-03T03:38:05.044Z,10.25
2022-08-03T03:38:35.979Z,10.25
2022-08-03T03:39:15.223Z,10.25
2022-08-03T03:39:37.992Z,10.15
2022-08-03T03:40:09.076Z,10.15
2022-08-03T03:40:39.739Z,10.15
2022-08-03T03:41:10.975Z,10.15
2022-08-03T03:41:42.296Z,10.15
2022-08-03T03:42:44.345Z,10.15
2022-08-03T03:43:17.077Z,10.15
2022-08-03T03:43:45.799Z,10.15
2022-08-03T03:44:16.950Z,10.15
2022-08-03T03:50:28.776Z,10.15
2022-08-03T03:50:59.942Z,10.32
2022-08-03T03:51:35.242Z,10.32
2022-08-03T03:52:01.791Z,10.32
2022-08-03T03:52:34.213Z,10.32
2022-08-03T03:53:04.299Z,10.15
2022-08-03T03:53:34.922Z,10.15
2022-08-03T03:54:09.011Z,10.15
2022-08-03T03:54:38.887Z,10.15
2022-08-03T03:55:21.657Z,10.15
2022-08-03T03:56:01.542Z,10.15
2022-08-03T03:56:10.235Z,10.15
2022-08-03T03:56:40.777Z,10.15
2022-08-03T03:57:13.032Z,10.15
2022-08-03T03:57:45.406Z,10.15
2022-08-03T03:58:14.706Z,10.15
2022-08-03T03:58:45.336Z,10.15
2022-08-03T03:59:16.456Z,10.15
2022-08-03T03:59:47.045Z,10.15
2022-08-03T04:01:14.221Z,10.15
2022-08-03T04:01:20.290Z,10.15
2022-08-03T04:01:58.844Z,10.15
2022-08-03T04:02:22.121Z,10.15
2022-08-03T04:02:53.115Z,10.15
2022-08-03T04:03:24.467Z,10.15
2022-08-03T04:03:57.917Z,10.15
2022-08-03T04:04:27.645Z,9.97
2022-08-03T04:04:58.233Z,9.97
2022-08-03T04:05:28.934Z,9.97
2022-08-03T04:06:01.976Z,9.97
2022-08-03T04:06:29.973Z,9.97
2022-08-03T04:07:01.314Z,9.97
2022-08-03T04:07:31.963Z,9.97
2022-08-03T04:08:03.678Z,9.97
2022-08-03T04:08:38.806Z,9.97
2022-08-03T04:09:05.276Z,10.15
2022-08-03T04:09:53.693Z,10.15
2022-08-03T04:10:14.725Z,10.25
2022-08-03T04:10:39.539Z,10.25
2022-08-03T04:11:14.213Z,10.25
2022-08-03T04:11:43.250Z,10.25
2022-08-03T04:12:11.914Z,10.25
2022-08-03T04:12:50.042Z,10.25
2022-08-03T04:13:12.915Z,10.25
2022-08-03T04:13:44.118Z,10.25
2022-08-03T04:14:15.141Z,10.25
2022-08-03T04:14:46.731Z,10.25
2022-08-03T04:15:24.322Z,10.25
2022-08-03T04:15:48.967Z,10.25
2022-08-03T04:16:19.493Z,10.35
2022-08-03T04:16:51.748Z,10.35
2022-08-03T04:17:20.913Z,10.35
2022-08-03T04:17:52.406Z,10.35
2022-08-03T04:18:24.912Z,10.35
2022-08-03T04:18:54.127Z,10.35
2022-08-03T04:19:28.796Z,10.35
2022-08-03T04:19:59.153Z,10.35
2022-08-03T04:20:28.665Z,10.35
2022-08-03T04:20:59.448Z,10.35
2022-08-03T04:22:00.370Z,10.35
2022-08-03T04:22:38.370Z,10.35
2022-08-03T04:23:02.407Z,10.35
2022-08-03T04:23:33.159Z,10.45
2022-08-03T04:24:04.571Z,10.62
2022-08-03T04:24:35.825Z,10.62
2022-08-03T04:25:08.279Z,10.62
2022-08-03T04:25:38.219Z,10.62
2022-08-03T04:26:08.289Z,10.62
2022-08-03T04:26:40.479Z,10.62
2022-08-03T04:27:10.393Z,10.62
2022-08-03T04:27:41.422Z,10.62
2022-08-03T04:28:30.899Z,10.62
2022-08-03T04:28:43.234Z,10.62
2022-08-03T04:29:14.021Z,10.62
2022-08-03T04:29:48.893Z,10.72
2022-08-03T04:30:29.378Z,10.72
2022-08-03T04:30:48.180Z,10.72
2022-08-03T04:31:19.258Z,10.72
2022-08-03T04:31:52.351Z,10.72
2022-08-03T04:33:01.517Z,10.72
2022-08-03T04:33:25.927Z,10.72
2022-08-03T04:33:56.420Z,10.72
2022-08-03T04:34:25.479Z,10.72
2022-08-03T04:34:55.500Z,10.72
2022-08-03T04:35:26.399Z,10.81
2022-08-03T04:36:35.179Z,10.81
2022-08-03T04:36:59.333Z,10.81
2022-08-03T04:37:29.926Z,10.81
2022-08-03T04:38:01.316Z,10.81
2022-08-03T04:38:32.401Z,10.81
2022-08-03T04:39:03.450Z,10.64
2022-08-03T04:39:34.031Z,10.74
2022-08-03T04:40:23.027Z,10.74
2022-08-03T04:40:53.511Z,10.74
2022-08-03T04:41:08.033Z,10.74
2022-08-03T04:42:07.011Z,10.74
2022-08-03T04:42:40.316Z,10.74
2022-08-03T04:43:11.232Z,10.84
2022-08-03T04:43:42.131Z,11.01
2022-08-03T04:44:13.276Z,11.01
2022-08-03T04:44:44.321Z,10.84
2022-08-03T04:45:20.817Z,11.01
2022-08-03T04:45:46.088Z,11.01
2022-08-03T04:46:18.259Z,11.01
2022-08-03T04:46:52.795Z,11.11
2022-08-03T04:47:19.235Z,11.11
2022-08-03T04:47:50.322Z,11.11
2022-08-03T04:48:52.552Z,11.11
2022-08-03T04:49:59.731Z,11.11
2022-08-03T04:50:25.644Z,11.11
2022-08-03T04:50:56.785Z,11.11
2022-08-03T04:51:28.564Z,11.21
2022-08-03T04:51:58.626Z,11.21
2022-08-03T04:52:29.363Z,11.21
2022-08-03T04:53:00.116Z,11.21
2022-08-03T04:53:31.401Z,11.21
2022-08-03T04:54:02.599Z,11.21
2022-08-03T04:54:33.339Z,11.21
2022-08-03T04:55:04.808Z,11.21
2022-08-03T04:55:35.215Z,11.30
2022-08-03T04:56:07.781Z,11.30
2022-08-03T04:56:39.116Z,11.30
2022-08-03T04:57:10.173Z,11.30
2022-08-03T04:57:42.329Z,11.30
2022-08-03T04:58:10.443Z,11.30
2022-08-03T04:58:41.226Z,11.30
2022-08-03T04:59:12.500Z,11.30
2022-08-03T04:59:43.468Z,11.40
2022-08-03T05:01:13.612Z,11.40
2022-08-03T05:01:19.576Z,11.58
2022-08-03T05:01:48.731Z,11.58
2022-08-03T05:02:19.372Z,11.58
2022-08-03T05:02:49.814Z,11.58
2022-08-03T05:03:24.994Z,11.67
2022-08-03T05:03:54.311Z,11.67
2022-08-03T05:04:24.713Z,11.50
2022-08-03T05:04:53.843Z,11.50
2022-08-03T05:05:49.846Z,11.50
2022-08-03T05:06:09.452Z,11.50
2022-08-03T05:06:26.249Z,11.60
2022-08-03T05:06:58.512Z,11.43
2022-08-03T05:07:35.787Z,11.43
2022-08-03T05:08:00.679Z,11.43
2022-08-03T05:08:30.188Z,11.52
2022-08-03T05:09:01.340Z,11.52
2022-08-03T05:09:52.877Z,11.52
2022-08-03T05:10:14.904Z,11.52
2022-08-03T05:10:55.426Z,11.62
2022-08-03T05:11:06.541Z,11.62
2022-08-03T05:11:42.312Z,11.72
2022-08-03T05:12:09.100Z,11.72
2022-08-03T05:12:39.870Z,11.72
2022-08-03T05:13:26.811Z,11.72
2022-08-03T05:14:00.589Z,11.82
2022-08-03T05:14:11.428Z,11.82
2022-08-03T05:14:42.825Z,11.92
2022-08-03T05:15:13.566Z,11.92
2022-08-03T05:15:47.463Z,11.83
2022-08-03T05:16:16.496Z,11.64
2022-08-03T05:16:47.954Z,11.64
2022-08-03T05:17:19.559Z,11.64
2022-08-03T05:17:49.393Z,11.93
2022-08-03T05:18:19.768Z,11.93
2022-08-03T05:19:25.192Z,11.84
2022-08-03T05:19:52.600Z,11.48
2022-08-03T05:20:24.454Z,11.39
2022-08-03T05:20:59.230Z,11.39
2022-08-03T05:21:26.604Z,11.67
2022-08-03T05:21:56.465Z,11.67
2022-08-03T05:22:30.535Z,11.77
2022-08-03T05:22:59.576Z,11.87
2022-08-03T05:23:29.742Z,12.05
2022-08-03T05:24:00.171Z,12.15
2022-08-03T05:24:31.330Z,11.96
2022-08-03T05:25:02.795Z,11.96
2022-08-03T05:25:33.596Z,11.78
2022-08-03T05:26:05.675Z,11.87
2022-08-03T05:26:38.039Z,11.68
2022-08-03T05:27:08.615Z,11.30
2022-08-03T05:27:37.603Z,11.58
2022-08-03T05:28:10.824Z,11.39
2022-08-03T05:28:50.836Z,11.39
2022-08-03T05:29:11.027Z,11.49
2022-08-03T05:29:42.158Z,11.29
2022-08-03T05:30:29.806Z,11.49
2022-08-03T05:30:44.620Z,11.78
2022-08-03T05:31:14.520Z,11.78
2022-08-03T05:31:48.836Z,11.87
2022-08-03T05:32:16.410Z,11.68
2022-08-03T05:32:52.567Z,11.68
2022-08-03T05:33:50.444Z,11.78
2022-08-03T05:34:21.161Z,11.78
2022-08-03T05:34:55.466Z,11.97
2022-08-03T05:36:02.517Z,11.68
2022-08-03T05:36:24.525Z,11.68
2022-08-03T05:36:57.219Z,11.88
2022-08-03T05:37:26.677Z,11.68
2022-08-03T05:38:00.458Z,11.57
2022-08-03T05:38:34.231Z,11.57
2022-08-03T05:39:02.751Z,11.97
2022-08-03T05:39:33.705Z,11.77
2022-08-03T05:40:21.503Z,11.67
2022-08-03T05:40:32.769Z,11.67
2022-08-03T05:41:22.132Z,11.67
2022-08-03T05:41:37.225Z,11.87
2022-08-03T05:42:05.781Z,11.67
2022-08-03T05:42:36.646Z,11.76
2022-08-03T05:43:19.252Z,11.97
2022-08-03T05:43:41.930Z,11.76
2022-08-03T05:44:12.583Z,11.97
2022-08-03T05:44:41.725Z,11.55
2022-08-03T05:45:28.278Z,11.24
2022-08-03T05:45:43.239Z,11.24
2022-08-03T05:46:14.249Z,11.65
2022-08-03T05:46:46.696Z,11.65
2022-08-03T05:47:18.414Z,11.45
2022-08-03T05:47:49.886Z,11.45
2022-08-03T05:48:56.906Z,10.91
2022-08-03T05:49:21.232Z,10.91
2022-08-03T05:49:52.299Z,10.91
2022-08-03T05:50:22.530Z,11.22
2022-08-03T05:50:56.877Z,11.10
2022-08-03T05:51:24.334Z,11.32
2022-08-03T05:52:00.200Z,11.32
2022-08-03T05:52:27.656Z,11.10
2022-08-03T05:52:56.969Z,11.20
2022-08-03T05:53:28.014Z,10.98
2022-08-03T05:54:00.996Z,10.98
2022-08-03T05:54:57.287Z,11.29
2022-08-03T05:55:01.388Z,10.86
2022-08-03T05:55:31.502Z,11.17
2022-08-03T05:56:03.605Z,10.96
2022-08-03T05:56:33.651Z,10.74
2022-08-03T05:57:04.752Z,10.84
2022-08-03T05:57:52.826Z,10.84
2022-08-03T05:58:06.750Z,10.84
2022-08-03T05:58:37.638Z,11.05
2022-08-03T05:59:36.660Z,11.36
2022-08-03T06:00:32.585Z,10.93
2022-08-03T06:00:43.781Z,10.80
2022-08-03T06:01:13.009Z,11.03
2022-08-03T06:01:51.962Z,11.24
2022-08-03T06:02:17.841Z,11.34
2022-08-03T06:02:45.795Z,11.34
2022-08-03T06:03:16.435Z,11.34
2022-08-03T06:03:47.714Z,11.43
2022-08-03T06:04:54.029Z,11.43
2022-08-03T06:04:56.753Z,11.43
2022-08-03T06:05:21.761Z,10.99
2022-08-03T06:05:55.603Z,11.08
2022-08-03T06:06:29.343Z,11.31
2022-08-03T06:06:54.598Z,11.08
2022-08-03T06:07:28.653Z,11.41
2022-08-03T06:07:55.810Z,11.41
2022-08-03T06:08:26.378Z,11.18
2022-08-03T06:09:11.953Z,11.50
2022-08-03T06:10:33.657Z,11.50
2022-08-03T06:11:08.271Z,11.37
2022-08-03T06:11:37.576Z,11.37
2022-08-03T06:12:03.770Z,11.37
2022-08-03T06:12:37.956Z,11.46
2022-08-03T06:13:08.854Z,11.33
2022-08-03T06:13:39.408Z,11.10
2022-08-03T06:14:07.956Z,11.19
2022-08-03T06:14:42.327Z,11.38
2022-08-03T06:15:52.615Z,11.38
2022-08-03T06:15:56.287Z,11.80
2022-08-03T06:16:12.448Z,11.80
2022-08-03T06:16:43.111Z,11.67
2022-08-03T06:17:13.518Z,11.99
2022-08-03T06:17:44.607Z,12.09
2022-08-03T06:18:15.524Z,12.18
2022-08-03T06:18:46.781Z,12.04
2022-08-03T06:19:18.016Z,11.40
2022-08-03T06:19:48.621Z,11.99
2022-08-03T06:20:19.975Z,11.93
2022-08-03T06:20:52.299Z,12.27
2022-08-03T06:21:56.197Z,12.90
2022-08-03T06:22:23.980Z,11.99
2022-08-03T06:23:00.978Z,11.99
2022-08-03T06:23:52.784Z,12.53
2022-08-03T06:24:27.528Z,13.35
2022-08-03T06:24:58.632Z,12.07
2022-08-03T06:25:29.740Z,12.52
2022-08-03T06:26:03.876Z,12.61
2022-08-03T06:26:34.589Z,12.70
2022-08-03T06:27:02.736Z,12.53
2022-08-03T06:27:36.850Z,11.98
2022-08-03T06:28:05.189Z,11.98
2022-08-03T06:28:51.534Z,12.35
2022-08-03T06:29:09.920Z,12.08
2022-08-03T06:29:37.727Z,12.91
2022-08-03T06:30:09.663Z,11.50
2022-08-03T06:31:12.618Z,12.06
2022-08-03T06:31:42.612Z,12.34
2022-08-03T06:32:51.616Z,12.81
2022-08-03T06:33:15.202Z,13.19
2022-08-03T06:34:30.851Z,13.19
2022-08-03T06:34:51.865Z,12.20
2022-08-03T06:35:19.056Z,11.62
2022-08-03T06:35:49.631Z,13.15
2022-08-03T06:36:21.644Z,12.40
2022-08-03T06:36:53.223Z,11.94
2022-08-03T06:37:23.320Z,12.58
2022-08-03T06:37:54.887Z,12.67
2022-08-03T06:38:26.991Z,12.44
2022-08-03T06:38:56.919Z,13.08
2022-08-03T06:39:26.754Z,12.12
2022-08-03T06:39:57.598Z,12.21
2022-08-03T06:40:28.745Z,12.23
2022-08-03T06:40:59.796Z,12.23
2022-08-03T06:41:31.441Z,12.89
2022-08-03T06:42:03.900Z,12.57
2022-08-03T06:42:35.592Z,12.57
2022-08-03T06:43:12.498Z,13.22
2022-08-03T06:43:35.722Z,12.32
2022-08-03T06:44:05.866Z,12.51
2022-08-03T06:44:36.699Z,12.71
2022-08-03T06:45:09.209Z,12.45
2022-08-03T06:45:42.017Z,12.54
2022-08-03T06:46:13.756Z,12.54
2022-08-03T06:46:40.981Z,13.23
2022-08-03T06:47:14.713Z,12.80
2022-08-03T06:47:44.594Z,12.36
2022-08-03T06:48:14.430Z,12.71
2022-08-03T06:48:44.756Z,12.53
2022-08-03T06:49:16.127Z,12.78
2022-08-03T06:50:12.709Z,12.17
2022-08-03T06:50:48.759Z,11.99
2022-08-03T06:52:05.059Z,12.80
2022-08-03T06:52:53.893Z,12.84
2022-08-03T06:53:24.877Z,11.56
2022-08-03T06:53:54.787Z,12.27
2022-08-03T06:54:25.857Z,11.73
2022-08-03T06:54:56.963Z,12.63
2022-08-03T06:55:28.117Z,12.36
2022-08-03T06:55:58.795Z,12.72
2022-08-03T06:56:29.855Z,12.27
2022-08-03T06:57:00.975Z,12.98
2022-08-03T06:57:33.168Z,11.91
2022-08-03T06:58:04.490Z,12.18
2022-08-03T06:58:36.815Z,12.09
2022-08-03T06:59:05.422Z,12.00
2022-08-03T07:00:10.994Z,12.87
2022-08-03T07:01:10.369Z,13.35
2022-08-03T07:01:40.076Z,12.35
2022-08-03T07:02:43.142Z,12.35
2022-08-03T07:03:14.057Z,12.69
2022-08-03T07:03:48.390Z,12.51
2022-08-03T07:04:14.931Z,12.75
2022-08-03T07:04:47.699Z,11.99
2022-08-03T07:05:16.889Z,12.23
2022-08-03T07:05:55.420Z,12.23
2022-08-03T07:06:19.190Z,11.90
2022-08-03T07:06:54.033Z,12.51
2022-08-03T07:07:20.934Z,12.53
2022-08-03T07:07:52.811Z,12.18
2022-08-03T07:08:33.956Z,13.95
2022-08-03T07:08:59.205Z,13.30
2022-08-03T07:09:55.730Z,11.91
2022-08-03T07:10:27.775Z,12.06
2022-08-03T07:11:01.099Z,12.24
2022-08-03T07:11:28.920Z,12.62
2022-08-03T07:12:04.381Z,12.24
2022-08-03T07:12:30.953Z,12.62
2022-08-03T07:13:02.625Z,11.86
2022-08-03T07:13:34.507Z,11.86
2022-08-03T07:14:04.472Z,12.51
2022-08-03T07:14:34.962Z,11.59
2022-08-03T07:15:06.817Z,12.35
2022-08-03T07:15:54.615Z,11.62
2022-08-03T07:16:39.068Z,12.83
2022-08-03T07:17:12.448Z,12.92
2022-08-03T07:17:41.077Z,12.30
2022-08-03T07:18:11.783Z,12.61
2022-08-03T07:18:44.309Z,12.21
2022-08-03T07:19:14.511Z,12.61
2022-08-03T07:19:54.798Z,12.21
2022-08-03T07:20:16.000Z,11.80
2022-08-03T07:20:49.136Z,12.52
2022-08-03T07:21:18.297Z,12.43
2022-08-03T07:21:49.054Z,12.03
2022-08-03T07:22:20.164Z,11.80
2022-08-03T07:22:51.081Z,11.36
2022-08-03T07:23:24.847Z,12.56
2022-08-03T07:23:55.205Z,12.97
2022-08-03T07:24:25.188Z,12.15
2022-08-03T07:25:12.048Z,12.79
2022-08-03T07:25:28.524Z,12.61
2022-08-03T07:25:56.797Z,12.35
2022-08-03T07:26:27.833Z,12.35
2022-08-03T07:27:00.971Z,12.35
2022-08-03T07:27:32.761Z,12.26
2022-08-03T07:28:09.802Z,12.26
2022-08-03T07:28:31.936Z,11.86
2022-08-03T07:29:04.036Z,12.17
2022-08-03T07:29:34.855Z,12.95
2022-08-03T07:30:07.884Z,12.57
2022-08-03T07:30:35.935Z,12.95
2022-08-03T07:31:10.138Z,10.22
2022-08-03T07:31:38.540Z,12.48
2022-08-03T07:32:12.095Z,11.54
2022-08-03T07:32:50.497Z,11.54
2022-08-03T07:33:11.183Z,11.97
2022-08-03T07:33:41.894Z,13.14
2022-08-03T07:34:14.576Z,12.97